createdAt,value
2023-02-22T00:00:53.174Z,7.97
2023-02-22T00:02:11.668Z,8.00
2023-02-22T00:03:26.213Z,7.98
2023-02-22T00:04:29.301Z,7.95
2023-02-22T00:05:32.372Z,7.93
2023-02-22T00:06:35.662Z,7.89
2023-02-22T00:07:39.025Z,7.86
2023-02-22T00:08:43.384Z,7.86
2023-02-22T00:09:46.527Z,7.80
2023-02-22T00:10:51.841Z,7.81
2023-02-22T00:11:55.153Z,7.79
2023-02-22T00:12:58.329Z,7.74
2023-02-22T00:14:02.807Z,7.77
2023-02-22T00:15:06.031Z,7.78
2023-02-22T00:16:09.212Z,7.71
2023-02-22T00:17:14.026Z,7.72
2023-02-22T00:18:19.764Z,7.72
2023-02-22T00:19:22.960Z,7.68
2023-02-22T00:20:26.253Z,7.65
2023-02-22T00:21:31.516Z,7.66
2023-02-22T00:22:34.830Z,7.63
2023-02-22T00:23:40.179Z,7.62
2023-02-22T00:24:43.181Z,7.55
2023-02-22T00:25:51.704Z,7.53
2023-02-22T00:26:57.333Z,7.53
2023-02-22T00:28:00.863Z,7.54
2023-02-22T00:29:05.028Z,7.52
2023-02-22T00:30:09.758Z,7.61
2023-02-22T00:31:15.789Z,7.64
2023-02-22T00:32:19.615Z,7.56
2023-02-22T00:33:23.907Z,7.46
2023-02-22T00:34:27.075Z,7.40
2023-02-22T00:35:31.427Z,7.29
2023-02-22T00:36:34.908Z,7.29
2023-02-22T00:37:42.323Z,7.28
2023-02-22T00:38:46.989Z,7.23
2023-02-22T00:39:51.218Z,7.22
2023-02-22T00:40:56.000Z,7.19
2023-02-22T00:42:01.963Z,7.15
2023-02-22T00:43:06.626Z,7.13
2023-02-22T00:44:09.651Z,7.09
2023-02-22T00:45:14.771Z,7.07
2023-02-22T00:46:18.033Z,7.01
2023-02-22T00:47:21.255Z,7.03
2023-02-22T00:48:26.404Z,7.03
2023-02-22T00:49:29.624Z,7.00
2023-02-22T00:50:34.124Z,6.97
2023-02-22T00:51:37.472Z,6.97
2023-02-22T00:52:40.769Z,6.96
2023-02-22T00:53:43.880Z,6.92
2023-02-22T00:54:47.036Z,6.93
2023-02-22T00:55:50.765Z,6.98
2023-02-22T00:56:54.709Z,7.01
2023-02-22T00:57:58.883Z,6.91
2023-02-22T00:59:02.345Z,6.86
2023-02-22T01:00:12.927Z,6.78
2023-02-22T01:01:16.599Z,6.75
2023-02-22T01:02:20.016Z,6.77
2023-02-22T01:03:23.391Z,6.67
2023-02-22T01:04:26.798Z,6.61
2023-02-22T01:05:31.011Z,6.67
2023-02-22T01:06:34.545Z,6.64
2023-02-22T01:07:37.654Z,6.50
2023-02-22T01:08:45.286Z,6.47
2023-02-22T01:09:48.562Z,6.51
2023-02-22T01:10:52.896Z,6.52
2023-02-22T01:11:57.213Z,6.61
2023-02-22T01:13:01.705Z,6.64
2023-02-22T01:14:04.746Z,6.62
2023-02-22T01:15:12.340Z,6.52
2023-02-22T01:16:15.634Z,6.51
2023-02-22T01:17:18.741Z,6.47
2023-02-22T01:18:23.748Z,6.47
2023-02-22T01:19:27.428Z,6.45
2023-02-22T01:20:30.511Z,6.42
2023-02-22T01:21:33.565Z,6.40
2023-02-22T01:22:37.831Z,6.45
2023-02-22T01:23:40.942Z,6.52
2023-02-22T01:24:44.145Z,6.48
2023-02-22T01:25:47.481Z,6.44
2023-02-22T01:26:53.072Z,6.50
2023-02-22T01:27:57.665Z,6.51
2023-02-22T01:29:01.305Z,6.53
2023-02-22T01:30:08.849Z,6.44
2023-02-22T01:31:12.923Z,6.42
2023-02-22T01:32:16.253Z,6.46
2023-02-22T01:33:19.509Z,6.56
2023-02-22T01:34:24.024Z,6.67
2023-02-22T01:35:30.826Z,6.62
2023-02-22T01:36:33.741Z,6.44
2023-02-22T01:37:37.027Z,6.38
2023-02-22T01:38:42.706Z,6.43
2023-02-22T01:39:46.189Z,6.41
2023-02-22T01:40:51.750Z,6.38
2023-02-22T01:41:55.345Z,6.31
2023-02-22T01:43:02.092Z,6.54
2023-02-22T01:44:34.467Z,6.52
2023-02-22T01:46:08.683Z,6.49
2023-02-22T01:47:11.952Z,6.52
2023-02-22T01:48:44.888Z,6.49
2023-02-22T01:49:51.377Z,6.52
2023-02-22T01:50:59.766Z,6.45
2023-02-22T01:52:06.849Z,6.48
2023-02-22T01:53:14.693Z,6.51
2023-02-22T01:54:27.019Z,6.52
2023-02-22T01:55:31.304Z,6.52
2023-02-22T01:56:38.653Z,6.47
2023-02-22T01:57:41.738Z,6.47
2023-02-22T01:58:50.952Z,6.50
2023-02-22T01:59:58.419Z,6.54
2023-02-22T02:01:01.605Z,6.54
2023-02-22T02:02:05.521Z,6.58
2023-02-22T02:03:15.386Z,6.65
2023-02-22T02:04:25.842Z,6.64
2023-02-22T02:05:32.223Z,6.65
2023-02-22T02:06:37.880Z,6.67
2023-02-22T02:07:41.697Z,6.67
2023-02-22T02:09:00.085Z,6.67
2023-02-22T02:10:15.766Z,6.67
2023-02-22T02:11:25.857Z,6.72
2023-02-22T02:12:33.577Z,6.67
2023-02-22T02:13:37.121Z,6.72
2023-02-22T02:14:42.292Z,6.74
2023-02-22T02:15:46.192Z,6.73
2023-02-22T02:16:52.235Z,6.69
2023-02-22T02:17:57.454Z,6.68
2023-02-22T02:19:00.986Z,6.69
2023-02-22T02:20:20.943Z,6.71
2023-02-22T02:21:50.169Z,6.74
2023-02-22T02:23:24.736Z,6.75
2023-02-22T02:24:59.066Z,6.84
2023-02-22T02:26:43.691Z,6.90
2023-02-22T02:27:54.714Z,7.06
2023-02-22T02:29:07.403Z,7.03
2023-02-22T02:30:21.918Z,7.05
2023-02-22T02:32:02.785Z,7.07
2023-02-22T02:33:17.030Z,7.13
2023-02-22T02:34:24.641Z,7.16
2023-02-22T02:35:57.825Z,7.28
2023-02-22T02:37:29.145Z,7.21
2023-02-22T02:38:58.234Z,7.21
2023-02-22T02:40:12.824Z,7.27
2023-02-22T02:41:22.367Z,7.37
2023-02-22T02:42:34.102Z,7.39
2023-02-22T02:44:18.768Z,7.45
2023-02-22T02:45:33.950Z,7.43
2023-02-22T02:46:56.580Z,7.43
2023-02-22T02:48:02.754Z,7.43
2023-02-22T02:49:17.261Z,7.53
2023-02-22T02:50:35.673Z,7.53
2023-02-22T02:51:44.664Z,7.53
2023-02-22T02:52:49.660Z,7.49
2023-02-22T02:53:54.026Z,7.48
2023-02-22T02:54:58.472Z,7.48
2023-02-22T02:56:01.653Z,7.49
2023-02-22T02:57:05.215Z,7.59
2023-02-22T02:58:09.027Z,7.56
2023-02-22T02:59:28.944Z,7.52
2023-02-22T03:00:39.659Z,7.50
2023-02-22T03:01:54.755Z,7.51
2023-02-22T03:03:11.692Z,7.52
2023-02-22T03:04:36.528Z,7.50
2023-02-22T03:06:02.164Z,7.51
2023-02-22T03:07:34.402Z,7.50
2023-02-22T03:09:05.125Z,7.47
2023-02-22T03:10:39.307Z,7.46
2023-02-22T03:12:08.501Z,7.45
2023-02-22T03:13:29.304Z,7.46
2023-02-22T03:14:42.531Z,7.45
2023-02-22T03:16:03.070Z,7.44
2023-02-22T03:17:16.387Z,7.44
2023-02-22T03:18:50.421Z,7.42
2023-02-22T03:20:05.299Z,7.41
2023-02-22T03:21:18.476Z,7.39
2023-02-22T03:22:28.520Z,7.39
2023-02-22T03:23:54.627Z,7.39
2023-02-22T03:25:07.427Z,7.45
2023-02-22T03:26:15.252Z,7.47
2023-02-22T03:27:35.010Z,7.43
2023-02-22T03:28:41.583Z,7.47
2023-02-22T03:29:46.215Z,7.50
2023-02-22T03:30:58.969Z,7.49
2023-02-22T03:32:05.396Z,7.46
2023-02-22T03:33:20.664Z,7.38
2023-02-22T03:34:28.636Z,7.40
2023-02-22T03:35:36.018Z,7.34
2023-02-22T03:36:49.107Z,7.35
2023-02-22T03:37:57.489Z,7.38
2023-02-22T03:39:04.562Z,7.39
2023-02-22T03:40:14.361Z,7.31
2023-02-22T03:41:24.352Z,7.29
2023-02-22T03:42:34.307Z,7.24
2023-02-22T03:43:45.306Z,7.19
2023-02-22T03:44:50.552Z,7.15
2023-02-22T03:45:54.780Z,7.12
2023-02-22T03:47:02.392Z,7.10
2023-02-22T03:48:21.153Z,7.04
2023-02-22T03:49:47.262Z,7.04
2023-02-22T03:50:51.419Z,6.97
2023-02-22T03:51:54.972Z,6.94
2023-02-22T03:53:01.128Z,6.92
2023-02-22T03:54:05.037Z,6.93
2023-02-22T03:55:11.417Z,6.97
2023-02-22T03:56:23.271Z,7.02
2023-02-22T03:57:30.329Z,6.97
2023-02-22T03:58:37.003Z,6.97
2023-02-22T03:59:41.075Z,6.97
2023-02-22T04:00:44.895Z,6.96
2023-02-22T04:01:48.024Z,6.96
2023-02-22T04:02:51.577Z,6.96
2023-02-22T04:03:54.649Z,6.97
2023-02-22T04:04:57.903Z,6.97
2023-02-22T04:06:00.960Z,6.98
2023-02-22T04:07:04.395Z,6.98
2023-02-22T04:08:08.045Z,6.96
2023-02-22T04:09:11.422Z,6.95
2023-02-22T04:10:17.266Z,7.00
2023-02-22T04:11:22.564Z,6.98
2023-02-22T04:12:25.707Z,6.98
2023-02-22T04:13:29.442Z,7.04
2023-02-22T04:14:32.533Z,7.07
2023-02-22T04:15:35.667Z,7.03
2023-02-22T04:16:38.772Z,6.99
2023-02-22T04:17:42.207Z,6.96
2023-02-22T04:18:46.794Z,6.97
2023-02-22T04:19:50.106Z,6.98
2023-02-22T04:20:53.475Z,7.01
2023-02-22T04:21:58.088Z,6.99
2023-02-22T04:23:01.759Z,6.99
2023-02-22T04:24:05.156Z,7.04
2023-02-22T04:25:09.131Z,6.99
2023-02-22T04:26:12.526Z,6.89
2023-02-22T04:27:16.191Z,6.81
2023-02-22T04:28:19.822Z,6.75
2023-02-22T04:29:23.189Z,6.77
2023-02-22T04:30:28.597Z,6.73
2023-02-22T04:31:34.248Z,6.75
2023-02-22T04:32:38.599Z,6.73
2023-02-22T04:33:41.567Z,6.69
2023-02-22T04:34:44.639Z,6.69
2023-02-22T04:35:47.635Z,6.68
2023-02-22T04:36:50.945Z,6.69
2023-02-22T04:37:54.038Z,6.70
2023-02-22T04:38:57.103Z,6.72
2023-02-22T04:40:00.806Z,6.69
2023-02-22T04:41:03.915Z,6.70
2023-02-22T04:42:07.352Z,6.69
2023-02-22T04:43:10.594Z,6.69
2023-02-22T04:44:14.462Z,6.73
2023-02-22T04:45:17.853Z,6.71
2023-02-22T04:46:20.981Z,6.70
2023-02-22T04:47:24.290Z,6.71
2023-02-22T04:48:28.206Z,6.70
2023-02-22T04:49:31.900Z,6.71
2023-02-22T04:50:35.324Z,6.73
2023-02-22T04:51:38.537Z,6.70
2023-02-22T04:52:41.763Z,6.74
2023-02-22T04:53:44.983Z,6.76
2023-02-22T04:54:48.134Z,6.77
2023-02-22T04:55:51.320Z,6.80
2023-02-22T04:56:54.848Z,6.78
2023-02-22T04:57:58.568Z,6.75
2023-02-22T04:59:03.366Z,6.81
2023-02-22T05:00:07.523Z,6.82
2023-02-22T05:01:16.936Z,6.82
2023-02-22T05:02:20.698Z,6.86
2023-02-22T05:03:23.799Z,6.82
2023-02-22T05:04:27.486Z,6.86
2023-02-22T05:05:30.733Z,6.88
2023-02-22T05:06:34.267Z,6.97
2023-02-22T05:07:38.003Z,6.96
2023-02-22T05:08:41.147Z,6.90
2023-02-22T05:09:44.651Z,6.93
2023-02-22T05:10:47.781Z,6.90
2023-02-22T05:11:50.937Z,6.87
2023-02-22T05:12:54.131Z,6.87
2023-02-22T05:13:57.052Z,6.90
2023-02-22T05:15:00.044Z,6.90
2023-02-22T05:16:04.230Z,6.87
2023-02-22T05:17:07.479Z,6.87
2023-02-22T05:18:10.615Z,6.90
2023-02-22T05:19:14.258Z,6.87
2023-02-22T05:20:30.398Z,6.90
2023-02-22T05:21:36.105Z,6.88
2023-02-22T05:22:39.242Z,6.88
2023-02-22T05:23:42.493Z,6.94
2023-02-22T05:24:45.695Z,6.91
2023-02-22T05:25:48.776Z,6.89
2023-02-22T05:26:53.558Z,6.88
2023-02-22T05:28:08.610Z,6.90
2023-02-22T05:29:12.902Z,6.88
2023-02-22T05:30:16.767Z,6.92
2023-02-22T05:31:24.862Z,6.89
2023-02-22T05:32:28.344Z,6.93
2023-02-22T05:33:31.649Z,6.92
2023-02-22T05:34:34.887Z,6.89
2023-02-22T05:35:38.333Z,6.81
2023-02-22T05:36:41.733Z,6.81
2023-02-22T05:37:45.261Z,6.80
2023-02-22T05:38:49.670Z,6.92
2023-02-22T05:39:53.024Z,6.89
2023-02-22T05:40:57.268Z,6.84
2023-02-22T05:42:00.460Z,6.93
2023-02-22T05:43:03.994Z,6.88
2023-02-22T05:44:07.239Z,6.91
2023-02-22T05:45:14.040Z,6.97
2023-02-22T05:46:17.202Z,6.91
2023-02-22T05:47:20.489Z,6.89
2023-02-22T05:48:24.991Z,6.88
2023-02-22T05:49:28.288Z,6.85
2023-02-22T05:50:33.388Z,6.88
2023-02-22T05:51:36.672Z,6.91
2023-02-22T05:52:39.932Z,7.01
2023-02-22T05:53:42.921Z,6.97
2023-02-22T05:54:46.286Z,7.05
2023-02-22T05:55:49.428Z,7.00
2023-02-22T05:56:52.658Z,6.97
2023-02-22T05:57:55.863Z,6.99
2023-02-22T05:58:59.955Z,6.95
2023-02-22T06:00:05.609Z,7.05
2023-02-22T06:01:09.418Z,7.01
2023-02-22T06:02:12.761Z,6.99
2023-02-22T06:03:16.423Z,7.00
2023-02-22T06:04:20.461Z,7.06
2023-02-22T06:05:23.762Z,7.10
2023-02-22T06:06:26.843Z,7.06
2023-02-22T06:07:30.080Z,7.05
2023-02-22T06:08:34.081Z,7.03
2023-02-22T06:09:37.392Z,7.04
2023-02-22T06:10:40.770Z,7.09
2023-02-22T06:11:44.048Z,7.07
2023-02-22T06:12:48.866Z,7.09
2023-02-22T06:13:53.531Z,7.23
2023-02-22T06:14:56.586Z,7.19
2023-02-22T06:16:00.118Z,7.21
2023-02-22T06:17:03.732Z,7.16
2023-02-22T06:18:07.024Z,7.19
2023-02-22T06:19:11.590Z,7.21
2023-02-22T06:20:17.704Z,7.30
2023-02-22T06:21:21.375Z,7.30
2023-02-22T06:22:24.352Z,7.34
2023-02-22T06:23:27.929Z,7.36
2023-02-22T06:24:31.006Z,7.36
2023-02-22T06:25:34.222Z,7.38
2023-02-22T06:26:37.144Z,7.47
2023-02-22T06:27:41.735Z,7.45
2023-02-22T06:28:47.317Z,7.46
2023-02-22T06:29:50.322Z,7.33
2023-02-22T06:30:53.419Z,7.29
2023-02-22T06:31:57.011Z,7.36
2023-02-22T06:33:00.110Z,7.44
2023-02-22T06:34:03.545Z,7.39
2023-02-22T06:35:07.095Z,7.37
2023-02-22T06:36:10.804Z,7.44
2023-02-22T06:37:13.809Z,7.43
2023-02-22T06:38:25.696Z,7.45
2023-02-22T06:39:29.137Z,7.55
2023-02-22T06:40:32.372Z,7.44
2023-02-22T06:41:38.481Z,7.38
2023-02-22T06:42:41.943Z,7.33
2023-02-22T06:43:47.799Z,7.39
2023-02-22T06:44:53.604Z,7.45
2023-02-22T06:45:56.717Z,7.46
2023-02-22T06:47:00.167Z,7.45
2023-02-22T06:48:03.533Z,7.49
2023-02-22T06:49:09.431Z,7.58
2023-02-22T06:50:35.531Z,7.57
2023-02-22T06:51:39.015Z,7.58
2023-02-22T06:52:45.312Z,7.75
2023-02-22T06:53:48.391Z,7.75
2023-02-22T06:54:52.184Z,7.70
2023-02-22T06:55:55.812Z,7.71
2023-02-22T06:56:58.967Z,7.82
2023-02-22T06:58:03.631Z,7.83
2023-02-22T06:59:07.072Z,7.86
2023-02-22T07:00:11.378Z,7.84
2023-02-22T07:01:14.753Z,7.85
2023-02-22T07:02:18.015Z,7.90
2023-02-22T07:03:21.484Z,8.04
2023-02-22T07:04:24.858Z,7.91
2023-02-22T07:05:28.627Z,7.96
2023-02-22T07:06:31.957Z,7.93
2023-02-22T07:07:35.004Z,7.91
2023-02-22T07:08:38.429Z,7.95
2023-02-22T07:09:43.809Z,7.98
2023-02-22T07:10:50.764Z,8.01
2023-02-22T07:11:53.861Z,8.04
2023-02-22T07:12:56.912Z,8.12
2023-02-22T07:13:59.999Z,8.23
2023-02-22T07:15:02.971Z,8.26
2023-02-22T07:16:06.284Z,8.24
2023-02-22T07:17:09.552Z,8.28
2023-02-22T07:18:14.266Z,8.41
2023-02-22T07:19:17.311Z,8.46
2023-02-22T07:20:21.725Z,8.63
2023-02-22T07:21:25.056Z,8.74
2023-02-22T07:22:28.389Z,8.71
2023-02-22T07:23:31.767Z,8.71
2023-02-22T07:24:35.392Z,8.78
2023-02-22T07:25:38.554Z,8.84
2023-02-22T07:26:42.931Z,8.95
2023-02-22T07:27:46.936Z,9.13
2023-02-22T07:28:50.282Z,9.22
2023-02-22T07:29:53.617Z,9.35
2023-02-22T07:30:56.755Z,9.61
2023-02-22T07:31:59.993Z,9.84
2023-02-22T07:33:08.869Z,9.94
2023-02-22T07:34:13.494Z,10.07
2023-02-22T07:35:18.707Z,10.18
2023-02-22T07:36:21.828Z,10.24
2023-02-22T07:37:24.872Z,10.31
2023-02-22T07:38:29.038Z,10.39
2023-02-22T07:39:32.373Z,10.39
2023-02-22T07:40:36.681Z,10.44
2023-02-22T07:41:39.848Z,10.44
2023-02-22T07:42:56.970Z,10.44
2023-02-22T07:43:59.947Z,10.50
2023-02-22T07:45:03.077Z,10.48
2023-02-22T07:46:06.225Z,10.48
2023-02-22T07:47:13.128Z,10.53
2023-02-22T07:48:17.809Z,10.50
2023-02-22T07:49:21.927Z,10.61
2023-02-22T07:50:26.680Z,10.60
2023-02-22T07:51:29.939Z,10.70
2023-02-22T07:52:33.220Z,10.92
2023-02-22T07:53:37.021Z,11.09
2023-02-22T07:54:40.181Z,11.00
2023-02-22T07:55:43.980Z,10.99
2023-02-22T07:56:50.349Z,11.02
2023-02-22T07:57:56.577Z,11.21
2023-02-22T07:59:01.218Z,11.15
2023-02-22T08:00:05.223Z,11.27
2023-02-22T08:01:08.964Z,11.20
2023-02-22T08:02:17.797Z,11.25
2023-02-22T08:03:24.761Z,11.16
2023-02-22T08:04:27.770Z,11.31
2023-02-22T08:05:34.784Z,11.36
2023-02-22T08:06:38.158Z,11.46
2023-02-22T08:07:41.508Z,11.49
2023-02-22T08:08:45.991Z,11.58
2023-02-22T08:09:49.135Z,11.58
2023-02-22T08:10:53.336Z,11.65
2023-02-22T08:11:56.544Z,11.71
2023-02-22T08:13:00.081Z,11.73
2023-02-22T08:14:03.161Z,11.60
2023-02-22T08:15:08.944Z,11.75
2023-02-22T08:16:12.261Z,11.87
2023-02-22T08:17:15.274Z,11.97
2023-02-22T08:18:20.117Z,11.97
2023-02-22T08:19:23.247Z,12.43
2023-02-22T08:20:26.443Z,12.85
2023-02-22T08:21:30.581Z,12.94
2023-02-22T08:22:33.793Z,12.99
2023-02-22T08:23:37.085Z,13.06
2023-02-22T08:24:40.880Z,13.20
2023-02-22T08:25:44.185Z,13.13
2023-02-22T08:26:48.072Z,13.67
2023-02-22T08:27:51.825Z,13.91
2023-02-22T08:28:55.073Z,14.21
2023-02-22T08:29:58.200Z,14.50
2023-02-22T08:31:01.355Z,14.77
2023-02-22T08:32:05.092Z,14.63
2023-02-22T08:33:08.448Z,14.99
2023-02-22T08:34:11.567Z,15.14
2023-02-22T08:35:16.407Z,15.46
2023-02-22T08:36:19.483Z,15.13
2023-02-22T08:37:23.042Z,14.72
2023-02-22T08:38:30.074Z,14.82
2023-02-22T08:39:33.302Z,14.78
2023-02-22T08:40:38.288Z,14.86
2023-02-22T08:41:41.428Z,14.63
2023-02-22T08:42:45.037Z,14.49
2023-02-22T08:43:48.292Z,14.03
2023-02-22T08:44:54.128Z,13.94
2023-02-22T08:45:57.933Z,13.64
2023-02-22T08:47:01.075Z,13.60
2023-02-22T08:48:04.542Z,13.51
2023-02-22T08:49:09.189Z,13.33
2023-02-22T08:50:19.331Z,13.20
2023-02-22T08:51:22.777Z,13.15
2023-02-22T08:52:26.182Z,13.04
2023-02-22T08:53:33.221Z,12.64
2023-02-22T08:54:36.417Z,12.77
2023-02-22T08:55:40.755Z,12.87
2023-02-22T08:56:44.322Z,12.85
2023-02-22T08:57:47.758Z,12.81
2023-02-22T08:58:50.915Z,12.82
2023-02-22T08:59:54.429Z,12.89
2023-02-22T09:00:58.205Z,12.80
2023-02-22T09:02:03.363Z,12.87
2023-02-22T09:03:15.206Z,12.89
2023-02-22T09:04:18.743Z,12.92
2023-02-22T09:05:24.362Z,12.80
2023-02-22T09:06:27.328Z,12.76
2023-02-22T09:07:30.319Z,12.41
2023-02-22T09:08:33.728Z,12.52
2023-02-22T09:09:37.214Z,12.71
2023-02-22T09:10:40.893Z,12.79
2023-02-22T09:11:44.306Z,12.72
2023-02-22T09:12:47.659Z,12.68
2023-02-22T09:13:50.863Z,12.85
2023-02-22T09:14:53.922Z,12.84
2023-02-22T09:15:57.068Z,12.94
2023-02-22T09:17:00.717Z,12.97
2023-02-22T09:18:06.396Z,13.00
2023-02-22T09:19:10.479Z,13.09
2023-02-22T09:20:15.091Z,13.26
2023-02-22T09:21:18.674Z,12.97
2023-02-22T09:22:22.127Z,12.78
2023-02-22T09:23:26.362Z,12.86
2023-02-22T09:24:29.642Z,13.06
2023-02-22T09:25:34.716Z,13.12
2023-02-22T09:26:43.016Z,13.27
2023-02-22T09:27:51.982Z,13.28
2023-02-22T09:28:55.140Z,13.43
2023-02-22T09:29:58.871Z,13.43
2023-02-22T09:31:02.036Z,13.34
2023-02-22T09:32:06.015Z,13.38
2023-02-22T09:33:18.926Z,13.18
2023-02-22T09:34:29.964Z,13.20
2023-02-22T09:35:36.589Z,13.25
2023-02-22T09:36:44.351Z,13.16
2023-02-22T09:37:47.481Z,13.14
2023-02-22T09:38:53.878Z,13.20
2023-02-22T09:39:57.106Z,13.28
2023-02-22T09:41:55.520Z,13.11
2023-02-22T09:43:32.976Z,13.16
2023-02-22T09:44:54.087Z,13.07
2023-02-22T09:46:13.875Z,13.05
2023-02-22T09:47:33.905Z,13.01
2023-02-22T09:48:51.375Z,13.00
2023-02-22T09:50:02.865Z,13.12
2023-02-22T09:51:18.205Z,13.20
2023-02-22T09:52:28.165Z,13.18
2023-02-22T09:53:37.382Z,13.13
2023-02-22T09:54:45.394Z,13.23
2023-02-22T09:55:53.225Z,13.23
2023-02-22T09:56:58.898Z,13.21
2023-02-22T09:58:13.840Z,13.17
2023-02-22T09:59:24.854Z,13.10
2023-02-22T10:00:41.078Z,13.04
2023-02-22T10:01:48.916Z,13.37
2023-02-22T10:03:10.576Z,13.25
2023-02-22T10:04:22.466Z,13.33
2023-02-22T10:05:34.080Z,13.21
2023-02-22T10:06:40.009Z,13.01
2023-02-22T10:07:54.599Z,13.00
2023-02-22T10:09:08.007Z,12.96
2023-02-22T10:10:19.995Z,12.82
2023-02-22T10:11:48.965Z,12.96
2023-02-22T10:13:06.459Z,13.10
2023-02-22T10:14:31.349Z,13.08
2023-02-22T10:16:06.653Z,13.04
2023-02-22T10:17:20.501Z,12.85
2023-02-22T10:18:48.657Z,13.13
2023-02-22T10:20:00.800Z,12.79
2023-02-22T10:21:31.196Z,12.51
2023-02-22T10:22:40.428Z,12.20
2023-02-22T10:24:04.876Z,12.14
2023-02-22T10:25:19.531Z,12.21
2023-02-22T10:26:37.015Z,12.16
2023-02-22T10:28:03.970Z,12.13
2023-02-22T10:29:17.864Z,12.19
2023-02-22T10:30:34.663Z,12.32
2023-02-22T10:31:47.422Z,12.32
2023-02-22T10:33:17.791Z,11.74
2023-02-22T10:34:31.401Z,11.84
2023-02-22T10:35:38.103Z,11.88
2023-02-22T10:36:44.197Z,11.80
2023-02-22T10:37:48.489Z,11.56
2023-02-22T10:38:57.942Z,11.66
2023-02-22T10:40:14.590Z,11.61
2023-02-22T10:41:37.428Z,11.50
2023-02-22T10:42:40.567Z,11.70
2023-02-22T10:43:44.835Z,11.79
2023-02-22T10:44:48.124Z,11.93
2023-02-22T10:45:56.316Z,11.92
2023-02-22T10:47:03.267Z,11.94
2023-02-22T10:48:15.612Z,11.92
2023-02-22T10:49:24.114Z,11.97
2023-02-22T10:50:29.934Z,12.08
2023-02-22T10:51:34.499Z,12.05
2023-02-22T10:52:37.840Z,11.99
2023-02-22T10:53:41.222Z,11.77
2023-02-22T10:54:48.518Z,11.58
2023-02-22T10:56:15.452Z,11.84
2023-02-22T10:57:32.468Z,11.97
2023-02-22T10:58:54.309Z,12.07
2023-02-22T10:59:58.110Z,12.15
2023-02-22T11:01:17.947Z,12.05
2023-02-22T11:02:27.951Z,12.07
2023-02-22T11:03:31.142Z,11.99
2023-02-22T11:04:52.247Z,11.96
2023-02-22T11:05:55.394Z,12.10
2023-02-22T11:07:01.491Z,12.18
2023-02-22T11:08:28.299Z,12.29
2023-02-22T11:09:31.676Z,11.94
2023-02-22T11:10:39.276Z,11.87
2023-02-22T11:11:46.224Z,11.91
2023-02-22T11:12:51.395Z,12.10
2023-02-22T11:13:55.845Z,11.98
2023-02-22T11:15:24.601Z,11.87
2023-02-22T11:16:41.234Z,12.01
2023-02-22T11:17:46.934Z,11.98
2023-02-22T11:18:50.426Z,12.07
2023-02-22T11:19:53.728Z,12.15
2023-02-22T11:21:02.390Z,12.25
2023-02-22T11:22:05.633Z,12.22
2023-02-22T11:23:09.087Z,12.13
2023-02-22T11:24:15.709Z,12.03
2023-02-22T11:25:23.224Z,12.01
2023-02-22T11:26:26.451Z,12.12
2023-02-22T11:27:44.091Z,12.25
2023-02-22T11:28:51.181Z,11.97
2023-02-22T11:29:59.643Z,12.02
2023-02-22T11:31:16.297Z,12.15
2023-02-22T11:32:22.676Z,12.26
2023-02-22T11:33:29.644Z,12.01
2023-02-22T11:34:37.259Z,11.93
2023-02-22T11:35:54.282Z,11.80
2023-02-22T11:37:15.845Z,11.82
2023-02-22T11:38:21.397Z,11.88
2023-02-22T11:39:32.665Z,12.00
2023-02-22T11:40:35.705Z,11.73
2023-02-22T11:41:38.721Z,11.92
2023-02-22T11:42:42.082Z,11.74
2023-02-22T11:43:48.401Z,11.78
2023-02-22T11:45:10.088Z,11.67
2023-02-22T11:46:26.609Z,11.52
2023-02-22T11:47:31.870Z,11.71
2023-02-22T11:48:39.774Z,11.63
2023-02-22T11:49:46.035Z,11.78
2023-02-22T11:51:14.473Z,11.60
2023-02-22T11:52:41.520Z,11.73
2023-02-22T11:53:57.697Z,11.62
2023-02-22T11:55:42.141Z,11.74
2023-02-22T11:56:50.614Z,11.74
2023-02-22T11:58:14.697Z,11.53
2023-02-22T11:59:42.189Z,11.60
2023-02-22T12:01:12.107Z,11.29
2023-02-22T12:02:15.355Z,11.68
2023-02-22T12:03:34.696Z,11.86
2023-02-22T12:05:12.330Z,11.67
2023-02-22T12:06:28.071Z,11.71
2023-02-22T12:07:50.923Z,11.46
2023-02-22T12:09:07.433Z,11.22
2023-02-22T12:10:40.479Z,11.12
2023-02-22T12:11:46.511Z,11.24
2023-02-22T12:13:17.356Z,11.37
2023-02-22T12:14:32.479Z,11.47
2023-02-22T12:15:56.697Z,11.37
2023-02-22T12:17:31.042Z,11.41
2023-02-22T12:18:50.828Z,11.32
2023-02-22T12:20:10.469Z,11.53
2023-02-22T12:21:20.730Z,11.58
2023-02-22T12:22:28.901Z,11.52
2023-02-22T12:23:45.102Z,11.35
2023-02-22T12:25:14.870Z,11.20
2023-02-22T12:26:38.133Z,11.32
2023-02-22T12:27:50.531Z,11.62
2023-02-22T12:28:53.733Z,11.58
2023-02-22T12:30:07.145Z,11.41
2023-02-22T12:32:03.359Z,11.18
2023-02-22T12:33:26.339Z,11.16
2023-02-22T12:34:36.735Z,11.19
2023-02-22T12:35:51.087Z,11.28
2023-02-22T12:36:59.888Z,11.27
2023-02-22T12:38:31.473Z,11.19
2023-02-22T12:39:58.437Z,11.16
2023-02-22T12:41:06.233Z,11.31
2023-02-22T12:42:17.064Z,11.24
2023-02-22T12:43:24.785Z,11.06
2023-02-22T12:44:38.967Z,11.06
2023-02-22T12:46:18.227Z,11.10
2023-02-22T12:47:28.109Z,11.22
2023-02-22T12:48:40.857Z,11.38
2023-02-22T12:50:00.540Z,11.37
2023-02-22T12:51:22.175Z,11.43
2023-02-22T12:52:46.905Z,11.36
2023-02-22T12:54:13.591Z,11.32
2023-02-22T12:55:29.031Z,11.46
2023-02-22T12:56:42.172Z,11.17
2023-02-22T12:57:48.016Z,11.03
2023-02-22T12:59:03.653Z,11.22
2023-02-22T13:00:28.896Z,11.34
2023-02-22T13:01:40.490Z,11.28
2023-02-22T13:02:54.613Z,11.16
2023-02-22T13:03:57.486Z,11.13
2023-02-22T13:05:02.201Z,11.13
2023-02-22T13:06:13.331Z,11.11
2023-02-22T13:07:37.142Z,11.11
2023-02-22T13:09:06.188Z,11.06
2023-02-22T13:10:26.604Z,11.06
2023-02-22T13:11:48.296Z,11.11
2023-02-22T13:12:57.662Z,11.28
2023-02-22T13:14:19.035Z,11.27
2023-02-22T13:15:28.024Z,11.16
2023-02-22T13:16:52.932Z,11.21
2023-02-22T13:18:41.179Z,11.11
2023-02-22T13:20:08.049Z,11.34
2023-02-22T13:21:51.583Z,11.14
2023-02-22T13:23:25.555Z,11.18
2023-02-22T13:25:02.283Z,11.25
2023-02-22T13:26:08.230Z,11.18
2023-02-22T13:27:24.194Z,11.10
2023-02-22T13:28:46.078Z,11.30
2023-02-22T13:29:55.516Z,10.99
2023-02-22T13:31:28.611Z,10.96
2023-02-22T13:33:03.951Z,11.09
2023-02-22T13:34:16.694Z,11.13
2023-02-22T13:35:52.909Z,11.20
2023-02-22T13:37:06.772Z,11.19
2023-02-22T13:38:12.476Z,11.12
2023-02-22T13:39:46.005Z,11.33
2023-02-22T13:41:17.153Z,11.24
2023-02-22T13:42:38.965Z,11.32
2023-02-22T13:43:59.579Z,11.19
2023-02-22T13:45:20.984Z,11.28
2023-02-22T13:46:47.332Z,11.22
2023-02-22T13:48:24.522Z,11.24
2023-02-22T13:49:39.100Z,11.48
2023-02-22T13:51:09.066Z,11.56
2023-02-22T13:52:23.935Z,11.37
2023-02-22T13:53:33.126Z,11.61
2023-02-22T13:54:51.625Z,11.65
2023-02-22T13:55:58.657Z,11.74
2023-02-22T13:57:05.977Z,11.72
2023-02-22T13:58:12.954Z,11.68
2023-02-22T13:59:36.345Z,11.59
2023-02-22T14:00:57.674Z,11.48
2023-02-22T14:02:04.718Z,11.54
2023-02-22T14:03:13.512Z,11.53
2023-02-22T14:04:28.683Z,11.48
2023-02-22T14:05:44.910Z,11.44
2023-02-22T14:06:48.124Z,11.63
2023-02-22T14:07:51.085Z,11.60
2023-02-22T14:08:54.671Z,11.64
2023-02-22T14:10:01.923Z,11.60
2023-02-22T14:11:14.391Z,11.35
2023-02-22T14:12:30.202Z,11.32
2023-02-22T14:13:56.088Z,11.41
2023-02-22T14:15:27.746Z,11.35
2023-02-22T14:16:34.106Z,11.34
2023-02-22T14:17:39.735Z,11.48
2023-02-22T14:18:46.177Z,11.44
2023-02-22T14:20:21.950Z,11.41
2023-02-22T14:21:24.978Z,11.46
2023-02-22T14:22:29.377Z,11.46
2023-02-22T14:23:41.594Z,11.49
2023-02-22T14:24:47.057Z,11.31
2023-02-22T14:25:51.032Z,11.29
2023-02-22T14:27:03.789Z,11.29
2023-02-22T14:28:30.460Z,11.32
2023-02-22T14:29:35.270Z,11.35
2023-02-22T14:30:40.342Z,11.42
2023-02-22T14:31:43.605Z,11.37
2023-02-22T14:32:49.171Z,11.20
2023-02-22T14:33:52.571Z,11.17
2023-02-22T14:34:58.399Z,11.28
2023-02-22T14:36:01.344Z,11.15
2023-02-22T14:37:13.204Z,11.05
2023-02-22T14:38:20.222Z,11.02
2023-02-22T14:39:26.397Z,11.03
2023-02-22T14:40:36.475Z,11.07
2023-02-22T14:42:05.838Z,11.03
2023-02-22T14:43:15.178Z,11.00
2023-02-22T14:44:24.379Z,11.08
2023-02-22T14:45:36.092Z,11.16
2023-02-22T14:46:42.972Z,11.28
2023-02-22T14:48:18.029Z,11.10
2023-02-22T14:49:25.601Z,11.03
2023-02-22T14:50:53.410Z,11.07
2023-02-22T14:52:04.108Z,11.12
2023-02-22T14:53:13.118Z,11.13
2023-02-22T14:54:25.753Z,11.01
2023-02-22T14:55:31.671Z,10.98
2023-02-22T14:57:29.196Z,10.96
2023-02-22T14:59:11.804Z,10.93
2023-02-22T15:00:23.035Z,10.93
2023-02-22T15:01:49.154Z,11.02
2023-02-22T15:03:00.668Z,10.90
2023-02-22T15:04:18.842Z,10.97
2023-02-22T15:05:21.711Z,10.92
2023-02-22T15:06:28.825Z,10.93
2023-02-22T15:07:32.486Z,10.93
2023-02-22T15:08:35.407Z,10.99